International Virtual Aviation Organisation

Russian Federation and Kazakhstan MCD

 

Карточка аэропорта UMKK

Внимание!
Информация на этой странице в стадии наполнения.
Если вы не увидели какой-то информации, или заметили неточность - пожалуйста сообщите нам!
Спасибо!
Команда RU-STAFF
Название аэропортаХраброво
Название аэропорта (англ.)Khrabrovo
Превышение43 ft. (13.1 m.)
Координаты54°53.4', 20°35.55'
Высота перехода1000m
Эшелон переходаQFE>=742mm:FL050; QFE<742:FL060
Коды ответчика6620-6637
Зона ОрВДКалининград РПИ (UMKK)
Данные METARNODATA
Проноз погоды (TAF)UMKK 080156Z 0803/0903 25007G13MPS 9999 BKN011 TEMPO 0803/0805 3100 -SHRA BKN015CB TEMPO 0805/0809 22008MPS 3100 -SHRA BKN006 BKN013CB BECMG 0809/0811 22008G16MPS 4000 -RA BR TEMPO 0811/0824 2100 -SHRA BKN015CB BECMG 0900/0902 23007G13MPS
NOTAMshow/hide NOTAM
AWOS   TABLE

Информация о ВПП

ВПП Длина ВПП (м.) Покрытие Курс ВПП Частота ILS
062500Асфальтобетон61 
242500Асфальтобетон241109.5

Диспетчерские позиции

Позывной Наименование органа УВД Частота
UMKK_APPКалининград-Подход126.0
UMKK_TWRКалининград-Вышка127.2



Спутниковое изображение